Time;durP1;ratioP1;P1;durP2;ratioP2;P2;SDS_P1;SDS_P2;PMS_P1;PMS_P2;Temp;Humidity;BMP_temperature;BMP_pressure;BME280_temperature;BME280_humidity;BME280_pressure;Samples;Min_cycle;Max_cycle;Signal;HPM_P1;HPM_P2
2021/12/05 00:24:02;;;;;;;6.80;3.10;;;;;;;;;;4934147;29;20419;-75
2021/12/05 00:26:30;;;;;;;10.73;3.40;;;;;;;;;;4934248;29;20440;-77
2021/12/05 00:38:08;;;;;;;8.57;3.38;;;;;;;;;;4920056;29;20124;-79
2021/12/05 00:40:25;;;;;;;7.95;3.30;;;;;;;;;;4918895;29;20142;-77
2021/12/05 00:57:18;;;;;;;5.47;2.25;;;;;;;;;;4916104;29;20124;-75
2021/12/05 01:15:11;;;;;;;1.80;1.23;;;;;;;;;;4880375;29;20540;-79
2021/12/05 01:17:58;;;;;;;5.33;1.47;;;;;;;;;;4895608;29;20562;-77
2021/12/05 01:20:27;;;;;;;2.78;1.35;;;;;;;;;;4895493;29;20053;-79
2021/12/05 01:23:48;;;;;;;2.10;1.30;;;;;;;;;;4880082;29;20053;-79
2021/12/05 01:26:11;;;;;;;6.00;1.50;;;;;;;;;;4890693;29;20049;-80
2021/12/05 01:39:39;;;;;;;3.45;0.82;;;;;;;;;;4884162;29;20436;-79
2021/12/05 02:34:05;;;;;;;2.63;0.52;;;;;;;;;;4921105;29;20054;-79
2021/12/05 02:39:26;;;;;;;3.22;0.60;;;;;;;;;;4919437;29;20052;-74
2021/12/05 02:41:56;;;;;;;3.80;0.60;;;;;;;;;;4938597;29;20104;-75
2021/12/05 02:44:25;;;;;;;0.95;0.60;;;;;;;;;;4921269;29;20094;-79
2021/12/05 02:47:04;;;;;;;1.10;0.50;;;;;;;;;;4921380;29;20380;-79
2021/12/05 02:49:34;;;;;;;1.75;0.40;;;;;;;;;;4920507;29;20039;-79
2021/12/05 02:52:06;;;;;;;2.10;0.73;;;;;;;;;;4921292;29;20110;-79
2021/12/05 02:54:38;;;;;;;3.50;0.55;;;;;;;;;;4921273;29;20075;-75
2021/12/05 02:57:07;;;;;;;2.97;0.57;;;;;;;;;;4921077;29;20568;-79
2021/12/05 03:02:11;;;;;;;1.50;0.70;;;;;;;;;;4920365;29;20068;-74
2021/12/05 03:04:42;;;;;;;1.42;0.73;;;;;;;;;;4921476;29;20039;-77
2021/12/05 03:07:12;;;;;;;2.50;0.80;;;;;;;;;;4920745;29;20079;-77
2021/12/05 03:09:40;;;;;;;1.40;0.55;;;;;;;;;;4937906;29;20082;-79
2021/12/05 03:12:10;;;;;;;2.60;1.02;;;;;;;;;;4920665;29;20043;-74
2021/12/05 03:14:38;;;;;;;6.13;1.10;;;;;;;;;;4920875;29;20396;-75
2021/12/05 03:17:07;;;;;;;2.42;1.20;;;;;;;;;;4920421;29;20047;-79
2021/12/05 03:19:35;;;;;;;2.00;0.80;;;;;;;;;;4920792;29;20058;-78
2021/12/05 03:22:03;;;;;;;1.95;0.80;;;;;;;;;;4923394;28;20048;-77
2021/12/05 03:24:32;;;;;;;1.88;1.00;;;;;;;;;;4942837;29;20126;-75
2021/12/05 03:27:02;;;;;;;3.22;1.20;;;;;;;;;;4940051;29;20039;-79
2021/12/05 03:29:31;;;;;;;4.47;1.40;;;;;;;;;;4939195;29;20050;-75
2021/12/05 03:31:58;;;;;;;2.42;1.02;;;;;;;;;;4939128;29;20043;-79
2021/12/05 03:34:27;;;;;;;2.67;1.02;;;;;;;;;;4939710;29;20479;-79
2021/12/05 03:37:01;;;;;;;1.38;0.90;;;;;;;;;;4939278;29;20055;-77
2021/12/05 03:39:31;;;;;;;2.72;1.40;;;;;;;;;;4939582;29;20047;-76
2021/12/05 03:42:00;;;;;;;2.90;0.98;;;;;;;;;;4939505;29;20510;-79
2021/12/05 03:44:28;;;;;;;3.45;1.00;;;;;;;;;;4939381;29;20085;-79
2021/12/05 03:46:59;;;;;;;2.10;1.10;;;;;;;;;;4939412;29;20395;-79
2021/12/05 03:49:28;;;;;;;4.43;1.50;;;;;;;;;;4939017;29;20043;-79
2021/12/05 03:52:05;;;;;;;4.68;1.00;;;;;;;;;;4938940;29;20102;-79
2021/12/05 03:54:33;;;;;;;1.75;1.23;;;;;;;;;;4938446;29;20047;-79
2021/12/05 03:57:02;;;;;;;2.92;2.25;;;;;;;;;;4939351;29;20066;-79
2021/12/05 03:59:32;;;;;;;2.83;2.17;;;;;;;;;;4939259;29;20059;-78
2021/12/05 04:02:01;;;;;;;6.07;2.85;;;;;;;;;;4938383;29;20051;-79
2021/12/05 04:04:30;;;;;;;8.02;2.83;;;;;;;;;;4939185;29;20051;-80
2021/12/05 04:06:58;;;;;;;3.70;2.00;;;;;;;;;;4938665;29;20165;-76
2021/12/05 04:09:26;;;;;;;5.75;1.73;;;;;;;;;;4939112;29;20050;-79
2021/12/05 04:12:00;;;;;;;4.55;3.10;;;;;;;;;;4938702;29;20142;-75
2021/12/05 04:14:38;;;;;;;1.88;1.58;;;;;;;;;;4938223;29;20047;-79
2021/12/05 04:17:09;;;;;;;2.40;1.00;;;;;;;;;;4938069;29;20134;-75
2021/12/05 04:19:37;;;;;;;1.42;0.90;;;;;;;;;;4938375;29;20051;-79
2021/12/05 04:22:06;;;;;;;2.45;0.85;;;;;;;;;;4938798;29;20054;-77
2021/12/05 04:24:35;;;;;;;1.33;0.60;;;;;;;;;;4938490;29;20435;-79
2021/12/05 04:27:04;;;;;;;2.38;0.60;;;;;;;;;;4938689;29;20063;-79
2021/12/05 04:29:33;;;;;;;0.80;0.60;;;;;;;;;;4937827;29;20067;-79
2021/12/05 04:32:01;;;;;;;0.80;0.52;;;;;;;;;;4938323;29;20063;-74
2021/12/05 04:34:30;;;;;;;2.25;0.77;;;;;;;;;;4938108;29;20068;-79
2021/12/05 04:36:58;;;;;;;2.22;0.68;;;;;;;;;;4938185;29;20073;-79
2021/12/05 04:39:27;;;;;;;2.40;0.80;;;;;;;;;;4938119;29;20130;-75
2021/12/05 04:41:56;;;;;;;0.85;0.60;;;;;;;;;;4938218;29;20070;-79
2021/12/05 04:44:25;;;;;;;0.77;0.70;;;;;;;;;;4937688;29;20059;-79
2021/12/05 04:46:57;;;;;;;4.63;0.70;;;;;;;;;;4938486;29;20043;-79
2021/12/05 04:49:26;;;;;;;1.70;0.60;;;;;;;;;;4937858;29;20578;-79
2021/12/05 04:51:55;;;;;;;1.75;0.50;;;;;;;;;;4938437;29;20043;-79
2021/12/05 04:54:23;;;;;;;1.85;0.77;;;;;;;;;;4937778;29;20043;-79
2021/12/05 04:56:51;;;;;;;0.85;0.50;;;;;;;;;;4937896;29;20051;-79
2021/12/05 04:59:34;;;;;;;2.13;0.75;;;;;;;;;;4937317;29;20079;-80
2021/12/05 05:02:03;;;;;;;2.38;0.80;;;;;;;;;;4937680;29;20055;-79
2021/12/05 05:04:38;;;;;;;2.10;0.60;;;;;;;;;;4938462;29;20047;-79
2021/12/05 05:07:13;;;;;;;2.03;0.90;;;;;;;;;;4936869;29;20051;-80
2021/12/05 05:09:42;;;;;;;2.05;1.08;;;;;;;;;;4937765;29;20051;-77
2021/12/05 05:12:10;;;;;;;4.22;1.15;;;;;;;;;;4933951;28;20413;-80
2021/12/05 05:14:37;;;;;;;4.03;1.13;;;;;;;;;;4921435;29;20047;-74
2021/12/05 05:17:05;;;;;;;8.43;2.60;;;;;;;;;;4937911;29;20054;-74
2021/12/05 05:19:38;;;;;;;7.47;2.42;;;;;;;;;;4937429;29;20047;-79
2021/12/05 05:30:52;;;;;;;9.15;4.32;;;;;;;;;;4954612;29;20194;-79
2021/12/05 05:42:17;;;;;;;3.65;2.70;;;;;;;;;;4936623;29;20141;-74
2021/12/05 05:47:36;;;;;;;3.50;1.40;;;;;;;;;;4936935;29;20047;-79
2021/12/05 05:50:01;;;;;;;4.63;1.40;;;;;;;;;;4953750;29;20071;-80
2021/12/05 05:52:30;;;;;;;2.90;1.33;;;;;;;;;;4921832;29;20047;-75
2021/12/05 05:54:59;;;;;;;1.98;0.93;;;;;;;;;;4937279;29;20049;-75
2021/12/05 05:57:41;;;;;;;5.03;1.55;;;;;;;;;;4936841;29;20051;-80
2021/12/05 06:00:17;;;;;;;5.20;1.35;;;;;;;;;;4937545;29;20474;-74
2021/12/05 06:05:33;;;;;;;4.90;1.73;;;;;;;;;;4936709;29;20085;-75
2021/12/05 06:08:01;;;;;;;4.22;1.77;;;;;;;;;;4936821;29;20416;-80
2021/12/05 06:10:29;;;;;;;4.70;1.38;;;;;;;;;;4936736;29;20050;-77
2021/12/05 06:12:58;;;;;;;3.80;1.38;;;;;;;;;;4937098;28;20047;-74
2021/12/05 06:15:27;;;;;;;3.33;0.90;;;;;;;;;;4954293;29;20070;-77
2021/12/05 06:17:55;;;;;;;3.80;1.05;;;;;;;;;;4938421;29;20047;-80
2021/12/05 06:20:25;;;;;;;3.13;1.20;;;;;;;;;;4925153;29;20078;-77
2021/12/05 06:22:59;;;;;;;3.45;1.20;;;;;;;;;;4926267;29;20061;-75
2021/12/05 06:25:28;;;;;;;6.25;2.28;;;;;;;;;;4940946;29;20043;-77
2021/12/05 06:28:00;;;;;;;4.32;1.67;;;;;;;;;;4940341;28;20050;-79
2021/12/05 06:30:36;;;;;;;3.65;1.90;;;;;;;;;;4957458;29;20041;-75
2021/12/05 06:47:10;;;;;;;5.85;1.70;;;;;;;;;;4957394;29;20159;-74
2021/12/05 06:49:38;;;;;;;3.38;1.92;;;;;;;;;;4940110;29;20086;-75
2021/12/05 06:52:07;;;;;;;5.60;1.80;;;;;;;;;;4957108;29;20494;-80
2021/12/05 06:54:38;;;;;;;4.05;1.88;;;;;;;;;;4939655;29;20047;-81
2021/12/05 06:57:07;;;;;;;4.78;1.98;;;;;;;;;;4940255;29;20043;-76
2021/12/05 06:59:37;;;;;;;6.10;2.42;;;;;;;;;;4937099;29;20047;-74
2021/12/05 07:02:07;;;;;;;3.90;1.90;;;;;;;;;;4954311;29;20089;-77
2021/12/05 07:07:18;;;;;;;3.05;2.17;;;;;;;;;;4934605;29;20070;-81
2021/12/05 07:09:46;;;;;;;4.43;2.47;;;;;;;;;;4937268;29;20032;-76
2021/12/05 07:15:08;;;;;;;7.25;2.25;;;;;;;;;;4936367;29;20086;-82
2021/12/05 07:20:39;;;;;;;6.88;2.40;;;;;;;;;;4957167;29;20043;-82
2021/12/05 07:23:45;;;;;;;7.68;2.40;;;;;;;;;;4939388;29;20039;-82
2021/12/05 07:26:14;;;;;;;6.50;2.53;;;;;;;;;;4956362;29;20415;-74
2021/12/05 07:42:41;;;;;;;9.02;2.60;;;;;;;;;;4956475;29;20070;-81
2021/12/05 07:45:14;;;;;;;6.38;2.22;;;;;;;;;;4956973;29;20053;-76
2021/12/05 07:47:45;;;;;;;6.93;1.85;;;;;;;;;;4956001;29;20057;-74
2021/12/05 07:50:13;;;;;;;5.50;2.10;;;;;;;;;;4938885;28;20047;-82
2021/12/05 07:52:53;;;;;;;8.27;2.47;;;;;;;;;;4955832;29;20503;-75
2021/12/05 07:55:27;;;;;;;11.00;2.40;;;;;;;;;;4953496;28;20054;-73
2021/12/05 07:58:09;;;;;;;9.75;2.95;;;;;;;;;;4939111;29;20074;-81
2021/12/05 08:14:41;;;;;;;5.75;1.83;;;;;;;;;;4997645;28;20093;-77
2021/12/05 08:17:16;;;;;;;6.65;1.60;;;;;;;;;;4989520;28;20100;-77
2021/12/05 08:19:44;;;;;;;3.35;1.40;;;;;;;;;;4993210;28;20043;-81
2021/12/05 08:22:11;;;;;;;5.05;1.90;;;;;;;;;;4993477;28;20050;-78
2021/12/05 08:24:41;;;;;;;5.70;1.92;;;;;;;;;;4993989;28;20046;-75
2021/12/05 08:27:13;;;;;;;6.10;2.03;;;;;;;;;;4993775;28;20046;-78
2021/12/05 08:29:49;;;;;;;3.70;2.00;;;;;;;;;;4994075;28;20117;-78
2021/12/05 08:32:32;;;;;;;5.80;2.38;;;;;;;;;;4992746;28;20482;-79
2021/12/05 08:38:51;;;;;;;10.95;2.67;;;;;;;;;;4978023;28;20077;-77
2021/12/05 09:20:42;;;;;;;11.02;2.40;;;;;;;;;;4993707;28;20129;-77
2021/12/05 10:07:00;;;;;;;5.78;1.73;;;;;;;;;;4998314;28;20059;-78
2021/12/05 10:37:49;;;;;;;3.45;1.98;;;;;;;;;;5015891;28;20077;-77
2021/12/05 10:40:22;;;;;;;8.73;2.47;;;;;;;;;;5015994;28;20089;-80
2021/12/05 10:42:52;;;;;;;7.85;2.17;;;;;;;;;;5015712;28;20080;-80
2021/12/05 10:45:20;;;;;;;6.45;1.98;;;;;;;;;;4998700;28;20050;-77
2021/12/05 10:47:49;;;;;;;5.07;1.90;;;;;;;;;;5015031;28;20074;-77
2021/12/05 10:53:25;;;;;;;7.20;2.00;;;;;;;;;;5914503;23;20081;-80
2021/12/05 10:55:59;;;;;;;5.28;2.00;;;;;;;;;;4996140;28;20120;-79
2021/12/05 10:58:54;;;;;;;8.15;1.80;;;;;;;;;;5014328;28;20408;-75
2021/12/05 11:01:38;;;;;;;3.33;1.27;;;;;;;;;;5010701;28;20037;-79
2021/12/05 11:05:51;;;;;;;5.88;1.55;;;;;;;;;;5099202;27;1338125;-77
2021/12/05 11:08:36;;;;;;;8.30;1.88;;;;;;;;;;5109136;28;20117;-80
2021/12/05 11:11:13;;;;;;;6.05;1.88;;;;;;;;;;5129278;28;20124;-79
2021/12/05 11:13:45;;;;;;;7.38;2.08;;;;;;;;;;5127561;28;20114;-80
2021/12/05 11:16:32;;;;;;;3.92;1.80;;;;;;;;;;5128730;28;20059;-77
2021/12/05 11:19:08;;;;;;;7.20;1.67;;;;;;;;;;5106243;28;20040;-76
2021/12/05 11:21:46;;;;;;;4.05;1.90;;;;;;;;;;5127235;27;20036;-76
2021/12/05 11:24:44;;;;;;;4.75;1.63;;;;;;;;;;5130308;27;20497;-79
2021/12/05 11:27:31;;;;;;;5.95;2.10;;;;;;;;;;5119124;27;20725;-78
2021/12/05 11:30:15;;;;;;;9.73;2.08;;;;;;;;;;5127899;28;20121;-76
2021/12/05 11:32:52;;;;;;;6.65;2.55;;;;;;;;;;5128768;28;20042;-76
2021/12/05 11:35:33;;;;;;;4.10;1.80;;;;;;;;;;5099066;28;20040;-75
2021/12/05 11:38:07;;;;;;;7.20;1.95;;;;;;;;;;5108813;28;20348;-76
2021/12/05 11:40:43;;;;;;;4.75;1.92;;;;;;;;;;5118422;28;20466;-78
2021/12/05 11:43:37;;;;;;;8.32;2.40;;;;;;;;;;5130573;28;20039;-75
2021/12/05 11:46:06;;;;;;;7.00;2.45;;;;;;;;;;5117705;28;20032;-78
2021/12/05 11:48:53;;;;;;;8.40;2.80;;;;;;;;;;5123579;28;20126;-77
2021/12/05 11:51:24;;;;;;;4.25;2.30;;;;;;;;;;5122643;28;20399;-79
2021/12/05 11:53:59;;;;;;;6.20;2.13;;;;;;;;;;5117782;28;20043;-75
2021/12/05 11:56:36;;;;;;;4.85;1.95;;;;;;;;;;5109762;28;20131;-78
2021/12/05 11:59:20;;;;;;;7.00;2.30;;;;;;;;;;5109850;28;20122;-77
2021/12/05 12:02:01;;;;;;;5.05;1.70;;;;;;;;;;5109458;28;20043;-76
2021/12/05 12:04:47;;;;;;;4.95;2.40;;;;;;;;;;5098846;28;20807;-77
2021/12/05 12:07:23;;;;;;;4.88;2.33;;;;;;;;;;5108524;28;20120;-76
2021/12/05 12:09:58;;;;;;;7.30;2.88;;;;;;;;;;5107897;28;20040;-75
2021/12/05 12:12:27;;;;;;;7.47;2.55;;;;;;;;;;5109773;28;20115;-78
2021/12/05 12:14:55;;;;;;;8.93;2.60;;;;;;;;;;5089448;28;20055;-81
2021/12/05 12:17:28;;;;;;;5.50;2.38;;;;;;;;;;5095782;28;20048;-82
2021/12/05 12:19:57;;;;;;;8.17;2.50;;;;;;;;;;5111613;28;20063;-77
2021/12/05 12:22:27;;;;;;;6.80;2.45;;;;;;;;;;5095470;28;20050;-81
2021/12/05 12:27:57;;;;;;;6.22;2.00;;;;;;;;;;5094879;28;20040;-76
2021/12/05 12:30:51;;;;;;;9.35;2.30;;;;;;;;;;5095218;28;20047;-75
2021/12/05 12:33:51;;;;;;;7.88;2.30;;;;;;;;;;5093931;28;20479;-75
2021/12/05 12:39:38;;;;;;;10.35;2.88;;;;;;;;;;5095578;28;20047;-80
2021/12/05 12:42:13;;;;;;;6.03;2.38;;;;;;;;;;5095850;28;20032;-78
2021/12/05 12:45:07;;;;;;;7.63;2.63;;;;;;;;;;5094307;28;20051;-80
2021/12/05 12:47:45;;;;;;;5.45;2.40;;;;;;;;;;5057824;28;20126;-79
2021/12/05 12:50:22;;;;;;;6.18;2.60;;;;;;;;;;5111030;28;20116;-75
2021/12/05 12:53:14;;;;;;;8.38;3.08;;;;;;;;;;5110930;28;20135;-79
2021/12/05 12:55:46;;;;;;;6.07;2.80;;;;;;;;;;5082695;28;20093;-77
2021/12/05 12:58:33;;;;;;;7.57;2.85;;;;;;;;;;5110854;28;20115;-81
2021/12/05 13:01:02;;;;;;;3.92;2.60;;;;;;;;;;5095671;28;20043;-84
2021/12/05 13:04:06;;;;;;;8.30;3.63;;;;;;;;;;5094246;28;20487;-79
2021/12/05 13:12:33;;;;;;;7.45;2.70;;;;;;;;;;5052844;28;20532;-78
2021/12/05 13:15:02;;;;;;;5.65;2.28;;;;;;;;;;5019960;28;20041;-84
2021/12/05 13:17:43;;;;;;;6.13;1.80;;;;;;;;;;5052558;28;20084;-78
2021/12/05 13:20:13;;;;;;;7.70;2.08;;;;;;;;;;5036018;28;20041;-84
2021/12/05 13:23:06;;;;;;;5.68;1.90;;;;;;;;;;5035726;28;20069;-81
2021/12/05 13:25:53;;;;;;;7.55;1.73;;;;;;;;;;5033697;28;20075;-82
2021/12/05 13:28:31;;;;;;;10.02;2.05;;;;;;;;;;5035073;28;20052;-79
2021/12/05 13:31:00;;;;;;;5.32;1.60;;;;;;;;;;5035991;28;20077;-82
2021/12/05 13:33:34;;;;;;;4.03;1.90;;;;;;;;;;5035808;28;20045;-85
2021/12/05 13:36:24;;;;;;;7.03;1.80;;;;;;;;;;5035622;28;20564;-80
2021/12/05 13:38:51;;;;;;;6.32;1.90;;;;;;;;;;5035729;28;20051;-82
2021/12/05 13:41:21;;;;;;;7.07;2.00;;;;;;;;;;5092258;28;20056;-86
2021/12/05 13:43:56;;;;;;;4.53;2.05;;;;;;;;;;5093541;28;20052;-81
2021/12/05 13:46:53;;;;;;;7.28;2.25;;;;;;;;;;5110218;28;20055;-81
2021/12/05 13:49:45;;;;;;;8.85;1.83;;;;;;;;;;5072651;28;20088;-79
2021/12/05 13:52:29;;;;;;;7.35;2.03;;;;;;;;;;5073945;28;20506;-79
2021/12/05 13:55:17;;;;;;;4.45;1.38;;;;;;;;;;5073594;28;20048;-80
2021/12/05 13:58:03;;;;;;;4.85;1.50;;;;;;;;;;5073803;28;20044;-79
2021/12/05 14:00:46;;;;;;;6.47;2.47;;;;;;;;;;5089448;28;20510;-77
2021/12/05 14:03:38;;;;;;;14.25;7.95;;;;;;;;;;5088510;28;20048;-75
2021/12/05 14:06:24;;;;;;;5.25;2.05;;;;;;;;;;5070899;28;20066;-74
2021/12/05 14:08:57;;;;;;;5.65;1.70;;;;;;;;;;5071902;28;20463;-77
2021/12/05 14:11:25;;;;;;;4.90;1.60;;;;;;;;;;5073473;28;20496;-77
2021/12/05 14:13:57;;;;;;;6.90;1.70;;;;;;;;;;5072033;28;20563;-76
2021/12/05 14:16:31;;;;;;;4.28;1.80;;;;;;;;;;5071618;28;20090;-80
2021/12/05 14:19:01;;;;;;;5.43;1.80;;;;;;;;;;5055221;28;20066;-76
2021/12/05 14:21:32;;;;;;;5.38;1.77;;;;;;;;;;5071444;28;20512;-77
2021/12/05 14:24:01;;;;;;;8.63;2.00;;;;;;;;;;5073234;28;20119;-74
2021/12/05 14:26:32;;;;;;;5.38;1.67;;;;;;;;;;5073660;28;20040;-80
2021/12/05 14:29:03;;;;;;;10.45;2.25;;;;;;;;;;5073276;28;20036;-79
2021/12/05 14:31:36;;;;;;;8.23;2.15;;;;;;;;;;5072125;28;20037;-75
2021/12/05 14:34:05;;;;;;;9.05;2.28;;;;;;;;;;5072516;28;20037;-75
2021/12/05 14:36:38;;;;;;;4.15;1.90;;;;;;;;;;5072813;28;20032;-74
2021/12/05 14:39:12;;;;;;;4.88;1.90;;;;;;;;;;5072116;28;20047;-74
2021/12/05 14:41:44;;;;;;;6.13;2.20;;;;;;;;;;5072728;28;20047;-78
2021/12/05 14:44:13;;;;;;;6.90;2.10;;;;;;;;;;5072808;28;20041;-77
2021/12/05 14:46:53;;;;;;;9.00;1.90;;;;;;;;;;5088025;28;20058;-72
2021/12/05 14:49:26;;;;;;;4.63;2.20;;;;;;;;;;5072783;28;20075;-80
2021/12/05 14:51:56;;;;;;;9.32;2.00;;;;;;;;;;5072746;28;20036;-77
2021/12/05 14:54:27;;;;;;;6.22;1.90;;;;;;;;;;5087865;28;20076;-76
2021/12/05 14:56:56;;;;;;;5.57;2.03;;;;;;;;;;5088626;28;20119;-79
2021/12/05 14:59:26;;;;;;;5.00;1.90;;;;;;;;;;5088411;28;20281;-76
2021/12/05 15:01:58;;;;;;;8.73;1.85;;;;;;;;;;5072740;28;20040;-78
2021/12/05 15:04:32;;;;;;;6.03;1.80;;;;;;;;;;5071533;28;20059;-78
2021/12/05 15:06:59;;;;;;;9.63;2.10;;;;;;;;;;5072841;28;20510;-79
2021/12/05 15:09:29;;;;;;;8.30;1.70;;;;;;;;;;5071323;28;20124;-79
2021/12/05 15:11:59;;;;;;;6.95;2.03;;;;;;;;;;5073155;28;20120;-76
2021/12/05 15:14:29;;;;;;;6.20;2.38;;;;;;;;;;5072509;28;20039;-75
2021/12/05 15:17:04;;;;;;;6.97;2.45;;;;;;;;;;5072662;28;20037;-75
2021/12/05 15:19:32;;;;;;;6.45;2.33;;;;;;;;;;5088507;28;20384;-79
2021/12/05 15:22:07;;;;;;;9.02;3.15;;;;;;;;;;5076931;28;20072;-76
2021/12/05 15:24:54;;;;;;;9.10;2.83;;;;;;;;;;5077767;28;20131;-80
2021/12/05 15:28:00;;;;;;;7.03;3.03;;;;;;;;;;5089694;28;20059;-79
2021/12/05 15:30:30;;;;;;;11.00;3.60;;;;;;;;;;5071152;28;20511;-77
2021/12/05 15:33:07;;;;;;;9.10;3.60;;;;;;;;;;5071958;28;20530;-80
2021/12/05 15:35:36;;;;;;;6.05;2.78;;;;;;;;;;5084583;28;20040;-77
2021/12/05 15:38:06;;;;;;;9.15;3.05;;;;;;;;;;5082156;28;20057;-76
2021/12/05 15:40:40;;;;;;;8.65;2.70;;;;;;;;;;5090362;28;20105;-76
2021/12/05 15:43:10;;;;;;;9.70;2.55;;;;;;;;;;5090944;28;20074;-75
2021/12/05 15:45:39;;;;;;;9.38;3.10;;;;;;;;;;5088970;28;20032;-76
2021/12/05 15:48:06;;;;;;;6.70;2.05;;;;;;;;;;5092102;28;20498;-76
2021/12/05 15:50:39;;;;;;;7.00;2.05;;;;;;;;;;5093065;28;20487;-73
2021/12/05 15:53:11;;;;;;;4.82;2.40;;;;;;;;;;5102314;28;20037;-79
2021/12/05 15:55:43;;;;;;;7.95;2.95;;;;;;;;;;5096231;28;20051;-79
2021/12/05 15:58:19;;;;;;;6.03;1.80;;;;;;;;;;5095976;28;20485;-79
2021/12/05 16:00:51;;;;;;;9.50;2.75;;;;;;;;;;5096182;28;20062;-85
2021/12/05 16:03:24;;;;;;;7.85;2.00;;;;;;;;;;5120331;27;20510;-82
2021/12/05 16:05:52;;;;;;;;;;;;;;;;;;5078514;28;20063;-88
2021/12/05 16:08:21;;;;;;;8.00;2.30;;;;;;;;;;5079152;28;19924;-80
2021/12/05 16:10:51;;;;;;;7.82;2.95;;;;;;;;;;5095495;28;20048;-87
2021/12/05 16:13:24;;;;;;;9.20;2.80;;;;;;;;;;5096179;28;20400;-86
2021/12/05 16:15:56;;;;;;;7.13;2.05;;;;;;;;;;5062267;28;20094;-87
2021/12/05 16:18:32;;;;;;;8.17;2.53;;;;;;;;;;5095966;27;20499;-84
2021/12/05 16:21:05;;;;;;;9.95;2.70;;;;;;;;;;5085949;28;20400;-85
2021/12/05 16:23:37;;;;;;;7.15;2.50;;;;;;;;;;5089295;28;20491;-84
2021/12/05 16:26:11;;;;;;;7.07;2.67;;;;;;;;;;5094567;28;20131;-87
2021/12/05 16:28:41;;;;;;;10.07;3.30;;;;;;;;;;5095134;28;20066;-84
2021/12/05 16:31:11;;;;;;;10.80;4.15;;;;;;;;;;5083811;28;20124;-87
2021/12/05 16:33:44;;;;;;;10.05;2.90;;;;;;;;;;5078066;28;20382;-80
2021/12/05 16:36:22;;;;;;;7.32;3.08;;;;;;;;;;5123917;27;20506;-88
2021/12/05 16:38:51;;;;;;;7.97;2.90;;;;;;;;;;5094764;28;20174;-84
2021/12/05 16:41:19;;;;;;;4.90;2.33;;;;;;;;;;5075636;28;20400;-86
2021/12/05 16:43:54;;;;;;;7.97;2.72;;;;;;;;;;5075229;28;20044;-88
2021/12/05 16:46:36;;;;;;;6.97;2.13;;;;;;;;;;5075077;28;20048;-80
2021/12/05 16:49:06;;;;;;;6.60;2.95;;;;;;;;;;5075180;28;20384;-87
2021/12/05 16:51:35;;;;;;;6.72;2.40;;;;;;;;;;5057180;28;20053;-84
2021/12/05 16:54:28;;;;;;;8.35;2.90;;;;;;;;;;5075034;28;20044;-87
2021/12/05 16:56:59;;;;;;;7.75;2.78;;;;;;;;;;5064821;28;20040;-87
2021/12/05 16:59:47;;;;;;;6.05;2.40;;;;;;;;;;5074896;28;20036;-80
2021/12/05 17:02:25;;;;;;;9.18;3.25;;;;;;;;;;5073462;28;20391;-80
2021/12/05 17:05:21;;;;;;;15.82;7.00;;;;;;;;;;5067789;28;20488;-86
2021/12/05 17:07:54;;;;;;;25.30;10.35;;;;;;;;;;5075250;28;20041;-83
2021/12/05 17:10:22;;;;;;;;;;;;;;;;;;5073708;28;20087;-87
2021/12/05 17:13:13;;;;;;;13.13;6.25;;;;;;;;;;5074746;28;19931;-87
2021/12/05 17:15:58;;;;;;;15.27;5.72;;;;;;;;;;4996729;28;20087;-86
2021/12/05 17:18:52;;;;;;;8.60;4.13;;;;;;;;;;5072480;28;20139;-84
2021/12/05 17:21:50;;;;;;;8.27;3.45;;;;;;;;;;5072233;28;20055;-88
2021/12/05 17:24:20;;;;;;;5.10;3.00;;;;;;;;;;5072755;28;20063;-88
2021/12/05 17:27:03;;;;;;;7.93;3.33;;;;;;;;;;5056770;28;20041;-87
2021/12/05 17:30:05;;;;;;;7.45;3.65;;;;;;;;;;5071943;28;20048;-87
2021/12/05 17:32:38;;;;;;;9.60;3.60;;;;;;;;;;5073203;28;20059;-86
2021/12/05 17:35:07;;;;;;;;;;;;;;;;;;5079731;28;20048;-87
2021/12/05 17:37:37;;;;;;;9.60;3.53;;;;;;;;;;5085729;28;19920;-80
2021/12/05 17:43:42;;;;;;;6.05;3.17;;;;;;;;;;5087095;28;20131;-79
2021/12/05 17:46:09;;;;;;;9.77;3.38;;;;;;;;;;5092384;28;20048;-83
2021/12/05 17:48:37;;;;;;;8.45;3.50;;;;;;;;;;5089657;28;20122;-87
2021/12/05 17:51:06;;;;;;;6.55;3.00;;;;;;;;;;5071957;28;20038;-83
2021/12/05 17:53:36;;;;;;;7.65;3.00;;;;;;;;;;5079438;28;20040;-87
2021/12/05 17:56:13;;;;;;;8.75;3.05;;;;;;;;;;5079733;28;20139;-86
2021/12/05 18:03:58;;;;;;;6.78;3.22;;;;;;;;;;5079196;28;20084;-81
2021/12/05 18:06:25;;;;;;;12.32;3.75;;;;;;;;;;5093647;28;20070;-87
2021/12/05 18:08:53;;;;;;;9.00;3.78;;;;;;;;;;5092498;28;20126;-87
2021/12/05 18:11:24;;;;;;;8.77;3.63;;;;;;;;;;5072159;28;20052;-87
2021/12/05 18:13:57;;;;;;;8.93;3.78;;;;;;;;;;5073161;28;20064;-87
2021/12/05 18:16:25;;;;;;;9.23;3.83;;;;;;;;;;5089105;28;20056;-87
2021/12/05 18:18:58;;;;;;;8.80;4.00;;;;;;;;;;5073882;28;20075;-88
2021/12/05 18:21:26;;;;;;;8.95;3.75;;;;;;;;;;5073452;28;20044;-83
2021/12/05 18:23:56;;;;;;;9.15;3.75;;;;;;;;;;5071851;28;20131;-82
2021/12/05 18:26:27;;;;;;;12.23;4.75;;;;;;;;;;5089530;28;20045;-83
2021/12/05 18:28:56;;;;;;;10.73;4.15;;;;;;;;;;5073226;28;20068;-87
2021/12/05 18:31:25;;;;;;;7.40;3.78;;;;;;;;;;5088622;28;20032;-83
2021/12/05 18:33:55;;;;;;;9.82;3.42;;;;;;;;;;5055465;28;20044;-83
2021/12/05 18:36:24;;;;;;;9.00;3.85;;;;;;;;;;5056055;28;20041;-86
2021/12/05 18:39:01;;;;;;;7.25;3.65;;;;;;;;;;5055425;28;20048;-87
2021/12/05 18:41:31;;;;;;;9.55;3.40;;;;;;;;;;5056141;28;20545;-87
2021/12/05 18:44:01;;;;;;;9.98;3.38;;;;;;;;;;5071865;28;20040;-83
2021/12/05 18:46:47;;;;;;;9.40;3.30;;;;;;;;;;5085183;28;20044;-80
2021/12/05 18:49:19;;;;;;;8.35;3.13;;;;;;;;;;5073341;28;20048;-87
2021/12/05 18:51:47;;;;;;;9.88;2.90;;;;;;;;;;5088871;28;20033;-86
2021/12/05 18:54:16;;;;;;;20.92;8.98;;;;;;;;;;5072014;28;20049;-86
2021/12/05 18:56:45;;;;;;;9.80;3.03;;;;;;;;;;5071711;28;20049;-79
2021/12/05 18:59:57;;;;;;;6.97;3.33;;;;;;;;;;5084862;28;20129;-78
2021/12/05 19:05:16;;;;;;;6.20;2.53;;;;;;;;;;5081747;28;20093;-87
2021/12/05 19:08:15;;;;;;;7.80;3.00;;;;;;;;;;5086027;28;20163;-79
2021/12/05 19:13:30;;;;;;;12.32;5.13;;;;;;;;;;5056025;28;20048;-82
2021/12/05 19:16:00;;;;;;;11.27;5.38;;;;;;;;;;5087918;28;20491;-79
2021/12/05 19:18:35;;;;;;;11.93;5.85;;;;;;;;;;5091358;28;20055;-79
2021/12/05 19:21:08;;;;;;;12.10;4.90;;;;;;;;;;5091057;28;20055;-82
2021/12/05 19:24:01;;;;;;;13.82;4.03;;;;;;;;;;5074465;28;20044;-82
2021/12/05 19:27:26;;;;;;;9.07;3.58;;;;;;;;;;5095697;28;20584;-83
2021/12/05 19:30:01;;;;;;;9.25;4.50;;;;;;;;;;5061019;28;20057;-87
2021/12/05 19:32:33;;;;;;;9.68;3.85;;;;;;;;;;5082128;28;20435;-83
2021/12/05 19:35:06;;;;;;;10.80;3.90;;;;;;;;;;5062999;28;20075;-87
2021/12/05 19:37:40;;;;;;;9.63;2.78;;;;;;;;;;5079476;28;20048;-86
2021/12/05 19:40:09;;;;;;;7.07;3.70;;;;;;;;;;5095832;28;20127;-86
2021/12/05 19:42:38;;;;;;;3.60;2.13;;;;;;;;;;5096974;28;20051;-79
2021/12/05 19:45:34;;;;;;;6.55;2.28;;;;;;;;;;5095540;28;20044;-85
2021/12/05 19:48:03;;;;;;;3.78;1.90;;;;;;;;;;5095777;28;20044;-82
2021/12/05 19:50:59;;;;;;;8.48;2.40;;;;;;;;;;5094970;28;20051;-86
2021/12/05 19:53:27;;;;;;;5.07;1.75;;;;;;;;;;5095212;28;20040;-86
2021/12/05 19:55:56;;;;;;;6.93;2.50;;;;;;;;;;5094871;28;20043;-87
2021/12/05 19:58:24;;;;;;;4.45;1.75;;;;;;;;;;5094698;28;20144;-87
2021/12/05 20:00:51;;;;;;;5.55;2.22;;;;;;;;;;5079850;28;20044;-86
2021/12/05 20:03:19;;;;;;;4.07;2.03;;;;;;;;;;5095743;28;20559;-85
2021/12/05 20:05:47;;;;;;;5.95;2.10;;;;;;;;;;5085541;28;20421;-85
2021/12/05 20:08:15;;;;;;;6.75;3.15;;;;;;;;;;5061823;28;20045;-87
2021/12/05 20:10:44;;;;;;;6.82;2.40;;;;;;;;;;5095281;28;20040;-88
2021/12/05 20:13:13;;;;;;;6.05;2.55;;;;;;;;;;5096373;28;20453;-85
2021/12/05 20:15:50;;;;;;;4.35;2.40;;;;;;;;;;5094706;28;20032;-88
2021/12/05 20:18:18;;;;;;;7.35;2.33;;;;;;;;;;5093161;28;20044;-88
2021/12/05 20:20:49;;;;;;;7.13;2.50;;;;;;;;;;5079493;28;20040;-83
2021/12/05 20:23:18;;;;;;;5.75;2.60;;;;;;;;;;5085253;28;20040;-89
2021/12/05 20:25:45;;;;;;;6.93;2.45;;;;;;;;;;5081029;28;20423;-87
2021/12/05 20:28:15;;;;;;;6.90;2.33;;;;;;;;;;5094122;28;20036;-82
2021/12/05 20:30:43;;;;;;;4.75;2.10;;;;;;;;;;5071557;28;20044;-85
2021/12/05 20:33:12;;;;;;;5.03;2.00;;;;;;;;;;5092519;28;20048;-82
2021/12/05 20:35:40;;;;;;;5.22;2.10;;;;;;;;;;5093933;28;20407;-85
2021/12/05 20:38:09;;;;;;;6.13;2.50;;;;;;;;;;5094025;28;20076;-80
2021/12/05 20:40:39;;;;;;;3.47;2.00;;;;;;;;;;5096261;28;20091;-88
2021/12/05 20:43:08;;;;;;;3.05;2.10;;;;;;;;;;5094880;28;20087;-88
2021/12/05 20:45:35;;;;;;;3.38;1.65;;;;;;;;;;5078065;28;20040;-82
2021/12/05 20:48:03;;;;;;;5.25;1.70;;;;;;;;;;5077518;28;20044;-82
2021/12/05 20:50:31;;;;;;;3.40;1.40;;;;;;;;;;5092081;28;20046;-83
2021/12/05 20:53:05;;;;;;;3.75;1.55;;;;;;;;;;5093984;28;20042;-81
2021/12/05 20:55:33;;;;;;;5.78;1.80;;;;;;;;;;5095713;28;20047;-86
2021/12/05 20:58:05;;;;;;;4.65;1.88;;;;;;;;;;5086321;28;20072;-89
2021/12/05 21:00:34;;;;;;;5.25;2.60;;;;;;;;;;5075285;28;20044;-83
2021/12/05 21:03:03;;;;;;;5.63;2.83;;;;;;;;;;5076723;28;20118;-90
2021/12/05 21:05:33;;;;;;;5.65;3.10;;;;;;;;;;5076067;28;20071;-82
2021/12/05 21:08:02;;;;;;;5.68;2.97;;;;;;;;;;5073945;28;20043;-86
2021/12/05 21:10:32;;;;;;;6.25;2.90;;;;;;;;;;5085976;28;20048;-89
2021/12/05 21:13:00;;;;;;;8.43;3.60;;;;;;;;;;5094485;28;20403;-86